sensor_id;sensor_type;location;lat;lon;timestamp;pressure;altitude;pressure_sealevel;temperature;humidity
29839;BME280;18669;53.356;-1.464;2022-10-22T00:02:05;98950.84;;;14.27;100.00
29839;BME280;18669;53.356;-1.464;2022-10-22T00:04:33;98958.00;;;14.25;100.00
29839;BME280;18669;53.356;-1.464;2022-10-22T00:06:59;98962.94;;;14.17;100.00
29839;BME280;18669;53.356;-1.464;2022-10-22T00:09:25;98965.94;;;14.11;100.00
29839;BME280;18669;53.356;-1.464;2022-10-22T00:11:51;98968.78;;;14.08;100.00
29839;BME280;18669;53.356;-1.464;2022-10-22T00:14:17;98958.38;;;14.05;100.00
29839;BME280;18669;53.356;-1.464;2022-10-22T00:16:46;98956.03;;;14.00;100.00
29839;BME280;18669;53.356;-1.464;2022-10-22T00:19:12;98968.69;;;13.95;100.00
29839;BME280;18669;53.356;-1.464;2022-10-22T00:21:39;98967.94;;;13.93;100.00
29839;BME280;18669;53.356;-1.464;2022-10-22T00:24:05;98967.38;;;13.87;100.00
29839;BME280;18669;53.356;-1.464;2022-10-22T00:26:31;98966.53;;;13.87;100.00
29839;BME280;18669;53.356;-1.464;2022-10-22T00:28:57;98975.47;;;13.84;100.00
29839;BME280;18669;53.356;-1.464;2022-10-22T00:31:23;98975.66;;;13.81;100.00
29839;BME280;18669;53.356;-1.464;2022-10-22T00:33:49;98987.28;;;13.79;100.00
29839;BME280;18669;53.356;-1.464;2022-10-22T00:36:15;98979.47;;;13.77;100.00
29839;BME280;18669;53.356;-1.464;2022-10-22T00:38:41;98991.63;;;13.80;100.00
29839;BME280;18669;53.356;-1.464;2022-10-22T00:41:08;98995.78;;;13.84;100.00
29839;BME280;18669;53.356;-1.464;2022-10-22T00:43:51;98994.91;;;13.83;100.00
29839;BME280;18669;53.356;-1.464;2022-10-22T00:46:18;98994.91;;;13.83;100.00
29839;BME280;18669;53.356;-1.464;2022-10-22T00:48:44;98983.50;;;13.83;100.00
29839;BME280;18669;53.356;-1.464;2022-10-22T00:51:10;98999.25;;;13.84;100.00
29839;BME280;18669;53.356;-1.464;2022-10-22T00:53:42;99001.66;;;13.89;100.00
29839;BME280;18669;53.356;-1.464;2022-10-22T00:56:10;99004.19;;;13.91;100.00
29839;BME280;18669;53.356;-1.464;2022-10-22T00:58:41;99011.09;;;13.93;100.00
29839;BME280;18669;53.356;-1.464;2022-10-22T01:01:11;99026.97;;;13.93;100.00
29839;BME280;18669;53.356;-1.464;2022-10-22T01:03:39;99028.44;;;13.97;100.00
29839;BME280;18669;53.356;-1.464;2022-10-22T01:06:05;99031.84;;;13.99;100.00
29839;BME280;18669;53.356;-1.464;2022-10-22T01:13:57;99038.78;;;14.02;100.00
29839;BME280;18669;53.356;-1.464;2022-10-22T01:16:37;99046.78;;;14.00;100.00
29839;BME280;18669;53.356;-1.464;2022-10-22T01:21:53;99046.00;;;13.98;100.00
29839;BME280;18669;53.356;-1.464;2022-10-22T01:29:41;99058.69;;;13.93;100.00
29839;BME280;18669;53.356;-1.464;2022-10-22T01:32:12;99055.28;;;13.91;100.00
29839;BME280;18669;53.356;-1.464;2022-10-22T01:34:40;99060.56;;;13.91;100.00
29839;BME280;18669;53.356;-1.464;2022-10-22T01:37:09;99063.28;;;13.90;100.00
29839;BME280;18669;53.356;-1.464;2022-10-22T01:39:37;99066.13;;;13.86;100.00
29839;BME280;18669;53.356;-1.464;2022-10-22T01:42:05;99068.69;;;13.88;100.00
29839;BME280;18669;53.356;-1.464;2022-10-22T01:44:32;99074.03;;;13.86;100.00
29839;BME280;18669;53.356;-1.464;2022-10-22T01:47:02;99075.84;;;13.86;100.00
29839;BME280;18669;53.356;-1.464;2022-10-22T01:49:35;99085.47;;;13.87;100.00
29839;BME280;18669;53.356;-1.464;2022-10-22T01:57:12;99094.66;;;13.96;100.00
29839;BME280;18669;53.356;-1.464;2022-10-22T02:02:50;99090.03;;;13.99;100.00
29839;BME280;18669;53.356;-1.464;2022-10-22T02:07:49;99100.53;;;14.01;100.00
29839;BME280;18669;53.356;-1.464;2022-10-22T02:10:17;99113.94;;;13.98;100.00
29839;BME280;18669;53.356;-1.464;2022-10-22T02:12:44;99106.28;;;13.93;100.00
29839;BME280;18669;53.356;-1.464;2022-10-22T02:15:12;99107.13;;;13.94;100.00
29839;BME280;18669;53.356;-1.464;2022-10-22T02:17:40;99112.69;;;13.89;100.00
29839;BME280;18669;53.356;-1.464;2022-10-22T02:20:09;99109.44;;;13.84;100.00
29839;BME280;18669;53.356;-1.464;2022-10-22T02:22:37;99120.22;;;13.81;100.00
29839;BME280;18669;53.356;-1.464;2022-10-22T02:25:04;99119.44;;;13.79;100.00
29839;BME280;18669;53.356;-1.464;2022-10-22T02:27:33;99124.13;;;13.73;100.00
29839;BME280;18669;53.356;-1.464;2022-10-22T02:32:27;99121.84;;;13.67;100.00
29839;BME280;18669;53.356;-1.464;2022-10-22T02:34:55;99128.34;;;13.62;100.00
29839;BME280;18669;53.356;-1.464;2022-10-22T02:37:21;99129.78;;;13.67;100.00
29839;BME280;18669;53.356;-1.464;2022-10-22T02:39:49;99136.69;;;13.70;100.00
29839;BME280;18669;53.356;-1.464;2022-10-22T02:42:16;99138.47;;;13.69;100.00
29839;BME280;18669;53.356;-1.464;2022-10-22T02:44:42;99131.66;;;13.65;100.00
29839;BME280;18669;53.356;-1.464;2022-10-22T02:47:10;99138.06;;;13.61;100.00
29839;BME280;18669;53.356;-1.464;2022-10-22T02:49:35;99150.53;;;13.59;100.00
29839;BME280;18669;53.356;-1.464;2022-10-22T02:52:01;99150.69;;;13.56;100.00
29839;BME280;18669;53.356;-1.464;2022-10-22T02:54:30;99155.47;;;13.49;100.00
29839;BME280;18669;53.356;-1.464;2022-10-22T02:56:58;99154.78;;;13.46;100.00
29839;BME280;18669;53.356;-1.464;2022-10-22T02:59:24;99164.50;;;13.45;100.00
29839;BME280;18669;53.356;-1.464;2022-10-22T03:01:55;99166.38;;;13.43;100.00
29839;BME280;18669;53.356;-1.464;2022-10-22T03:04:27;99163.81;;;13.41;100.00
29839;BME280;18669;53.356;-1.464;2022-10-22T03:06:53;99174.88;;;13.48;100.00
29839;BME280;18669;53.356;-1.464;2022-10-22T03:09:18;99173.88;;;13.51;100.00
29839;BME280;18669;53.356;-1.464;2022-10-22T03:11:45;99178.81;;;13.57;100.00
29839;BME280;18669;53.356;-1.464;2022-10-22T03:14:12;99186.56;;;13.60;100.00
29839;BME280;18669;53.356;-1.464;2022-10-22T03:16:38;99184.94;;;13.57;100.00
29839;BME280;18669;53.356;-1.464;2022-10-22T03:19:03;99181.47;;;13.57;100.00
29839;BME280;18669;53.356;-1.464;2022-10-22T03:21:40;99188.53;;;13.56;100.00
29839;BME280;18669;53.356;-1.464;2022-10-22T03:24:11;99191.50;;;13.50;100.00
29839;BME280;18669;53.356;-1.464;2022-10-22T03:26:38;99194.25;;;13.49;100.00
29839;BME280;18669;53.356;-1.464;2022-10-22T03:29:04;99203.78;;;13.51;100.00
29839;BME280;18669;53.356;-1.464;2022-10-22T03:31:30;99194.69;;;13.57;100.00
29839;BME280;18669;53.356;-1.464;2022-10-22T03:33:56;99206.09;;;13.57;100.00
29839;BME280;18669;53.356;-1.464;2022-10-22T03:36:22;99209.84;;;13.53;100.00
29839;BME280;18669;53.356;-1.464;2022-10-22T03:38:48;99214.19;;;13.54;100.00
29839;BME280;18669;53.356;-1.464;2022-10-22T03:41:14;99216.75;;;13.56;100.00
29839;BME280;18669;53.356;-1.464;2022-10-22T03:43:43;99228.00;;;13.60;100.00
29839;BME280;18669;53.356;-1.464;2022-10-22T03:46:14;99237.63;;;13.61;100.00
29839;BME280;18669;53.356;-1.464;2022-10-22T03:48:40;99243.69;;;13.63;100.00
29839;BME280;18669;53.356;-1.464;2022-10-22T03:51:07;99247.00;;;13.66;100.00
29839;BME280;18669;53.356;-1.464;2022-10-22T03:53:33;99248.03;;;13.64;100.00
29839;BME280;18669;53.356;-1.464;2022-10-22T03:55:59;99250.66;;;13.64;100.00
29839;BME280;18669;53.356;-1.464;2022-10-22T03:58:26;99257.66;;;13.65;100.00
29839;BME280;18669;53.356;-1.464;2022-10-22T04:00:52;99257.84;;;13.62;100.00
29839;BME280;18669;53.356;-1.464;2022-10-22T04:03:18;99269.16;;;13.64;100.00
29839;BME280;18669;53.356;-1.464;2022-10-22T04:05:44;99269.94;;;13.66;100.00
29839;BME280;18669;53.356;-1.464;2022-10-22T04:08:10;99268.31;;;13.63;100.00
29839;BME280;18669;53.356;-1.464;2022-10-22T04:10:36;99261.41;;;13.61;100.00
29839;BME280;18669;53.356;-1.464;2022-10-22T04:13:02;99269.72;;;13.37;100.00
29839;BME280;18669;53.356;-1.464;2022-10-22T04:15:28;99277.25;;;13.45;100.00
29839;BME280;18669;53.356;-1.464;2022-10-22T04:17:54;99290.38;;;13.46;100.00
29839;BME280;18669;53.356;-1.464;2022-10-22T04:20:20;99286.00;;;13.45;100.00
29839;BME280;18669;53.356;-1.464;2022-10-22T04:22:46;99294.97;;;13.42;100.00
29839;BME280;18669;53.356;-1.464;2022-10-22T04:25:12;99303.66;;;13.45;100.00
29839;BME280;18669;53.356;-1.464;2022-10-22T04:27:37;99305.66;;;13.39;100.00
29839;BME280;18669;53.356;-1.464;2022-10-22T04:30:03;99312.16;;;13.34;100.00
29839;BME280;18669;53.356;-1.464;2022-10-22T04:32:30;99315.94;;;13.28;100.00
29839;BME280;18669;53.356;-1.464;2022-10-22T04:34:55;99323.28;;;13.23;100.00
29839;BME280;18669;53.356;-1.464;2022-10-22T04:37:21;99328.72;;;13.20;100.00
29839;BME280;18669;53.356;-1.464;2022-10-22T04:39:47;99326.41;;;13.13;100.00
29839;BME280;18669;53.356;-1.464;2022-10-22T04:42:13;99328.50;;;13.07;100.00
29839;BME280;18669;53.356;-1.464;2022-10-22T04:44:39;99330.53;;;13.02;100.00
29839;BME280;18669;53.356;-1.464;2022-10-22T04:47:05;99339.47;;;12.99;100.00
29839;BME280;18669;53.356;-1.464;2022-10-22T04:49:31;99336.44;;;12.89;100.00
29839;BME280;18669;53.356;-1.464;2022-10-22T04:51:58;99333.13;;;12.86;100.00
29839;BME280;18669;53.356;-1.464;2022-10-22T04:54:23;99337.63;;;12.83;100.00
29839;BME280;18669;53.356;-1.464;2022-10-22T04:56:50;99332.50;;;12.80;100.00
29839;BME280;18669;53.356;-1.464;2022-10-22T04:59:17;99333.78;;;12.72;100.00
29839;BME280;18669;53.356;-1.464;2022-10-22T05:01:43;99336.66;;;12.67;100.00
29839;BME280;18669;53.356;-1.464;2022-10-22T05:04:10;99347.69;;;12.58;100.00
29839;BME280;18669;53.356;-1.464;2022-10-22T05:06:36;99358.84;;;12.63;100.00
29839;BME280;18669;53.356;-1.464;2022-10-22T05:09:04;99357.31;;;12.59;100.00
29839;BME280;18669;53.356;-1.464;2022-10-22T05:11:32;99364.38;;;12.58;100.00
29839;BME280;18669;53.356;-1.464;2022-10-22T05:13:59;99368.38;;;12.48;100.00
29839;BME280;18669;53.356;-1.464;2022-10-22T05:16:26;99362.41;;;12.44;100.00
29839;BME280;18669;53.356;-1.464;2022-10-22T05:18:52;99370.38;;;12.43;100.00
29839;BME280;18669;53.356;-1.464;2022-10-22T05:21:19;99377.53;;;12.41;100.00
29839;BME280;18669;53.356;-1.464;2022-10-22T05:23:46;99380.41;;;12.36;100.00
29839;BME280;18669;53.356;-1.464;2022-10-22T05:26:15;99385.03;;;12.31;100.00
29839;BME280;18669;53.356;-1.464;2022-10-22T05:28:41;99391.31;;;12.28;100.00
29839;BME280;18669;53.356;-1.464;2022-10-22T05:31:07;99385.25;;;12.26;100.00
29839;BME280;18669;53.356;-1.464;2022-10-22T05:33:33;99391.66;;;12.20;100.00
29839;BME280;18669;53.356;-1.464;2022-10-22T05:35:59;99392.81;;;12.15;100.00
29839;BME280;18669;53.356;-1.464;2022-10-22T05:38:25;99400.06;;;12.09;100.00
29839;BME280;18669;53.356;-1.464;2022-10-22T05:40:58;99401.22;;;12.04;100.00
29839;BME280;18669;53.356;-1.464;2022-10-22T05:43:24;99406.75;;;11.98;100.00
29839;BME280;18669;53.356;-1.464;2022-10-22T05:45:50;99406.09;;;11.92;100.00
29839;BME280;18669;53.356;-1.464;2022-10-22T05:48:15;99406.09;;;11.92;100.00
29839;BME280;18669;53.356;-1.464;2022-10-22T05:50:41;99417.50;;;11.93;100.00
29839;BME280;18669;53.356;-1.464;2022-10-22T05:53:07;99414.75;;;11.96;100.00
29839;BME280;18669;53.356;-1.464;2022-10-22T05:55:36;99417.50;;;11.93;100.00
29839;BME280;18669;53.356;-1.464;2022-10-22T05:58:03;99417.69;;;11.88;100.00
29839;BME280;18669;53.356;-1.464;2022-10-22T06:00:29;99415.16;;;11.87;100.00
29839;BME280;18669;53.356;-1.464;2022-10-22T06:02:55;99420.56;;;11.84;100.00
29839;BME280;18669;53.356;-1.464;2022-10-22T06:05:21;99420.03;;;11.75;100.00
29839;BME280;18669;53.356;-1.464;2022-10-22T06:07:47;99417.63;;;11.71;100.00
29839;BME280;18669;53.356;-1.464;2022-10-22T06:10:13;99428.91;;;11.54;100.00
29839;BME280;18669;53.356;-1.464;2022-10-22T06:12:40;99429.44;;;11.62;100.00
29839;BME280;18669;53.356;-1.464;2022-10-22T06:15:06;99419.75;;;11.62;100.00
29839;BME280;18669;53.356;-1.464;2022-10-22T06:17:32;99433.63;;;11.66;100.00
29839;BME280;18669;53.356;-1.464;2022-10-22T06:19:59;99433.78;;;11.63;100.00
29839;BME280;18669;53.356;-1.464;2022-10-22T06:22:25;99433.72;;;11.64;100.00
29839;BME280;18669;53.356;-1.464;2022-10-22T06:24:51;99436.25;;;11.66;100.00
29839;BME280;18669;53.356;-1.464;2022-10-22T06:27:17;99438.25;;;11.61;100.00
29839;BME280;18669;53.356;-1.464;2022-10-22T06:29:43;99440.59;;;11.67;100.00
29839;BME280;18669;53.356;-1.464;2022-10-22T06:32:08;99445.03;;;11.67;100.00
29839;BME280;18669;53.356;-1.464;2022-10-22T06:34:34;99450.31;;;11.67;100.00
29839;BME280;18669;53.356;-1.464;2022-10-22T06:37:00;99458.28;;;11.65;100.00
29839;BME280;18669;53.356;-1.464;2022-10-22T06:39:26;99449.44;;;11.66;100.00
29839;BME280;18669;53.356;-1.464;2022-10-22T06:41:53;99457.50;;;11.63;100.00
29839;BME280;18669;53.356;-1.464;2022-10-22T06:44:18;99462.28;;;11.53;100.00
29839;BME280;18669;53.356;-1.464;2022-10-22T06:46:47;99465.56;;;11.58;100.00
29839;BME280;18669;53.356;-1.464;2022-10-22T06:49:14;99474.53;;;11.54;100.00
29839;BME280;18669;53.356;-1.464;2022-10-22T06:51:40;99476.00;;;11.61;100.00
29839;BME280;18669;53.356;-1.464;2022-10-22T06:54:06;99477.97;;;11.56;100.00
29839;BME280;18669;53.356;-1.464;2022-10-22T06:56:31;99479.88;;;11.53;100.00
29839;BME280;18669;53.356;-1.464;2022-10-22T06:58:57;99485.28;;;11.49;100.00
29839;BME280;18669;53.356;-1.464;2022-10-22T07:01:24;99494.78;;;11.54;100.00
29839;BME280;18669;53.356;-1.464;2022-10-22T07:03:51;99492.19;;;11.52;100.00
29839;BME280;18669;53.356;-1.464;2022-10-22T07:06:17;99500.03;;;11.54;100.00
29839;BME280;18669;53.356;-1.464;2022-10-22T07:08:43;99502.00;;;11.48;100.00
29839;BME280;18669;53.356;-1.464;2022-10-22T07:11:10;99499.50;;;11.45;100.00
29839;BME280;18669;53.356;-1.464;2022-10-22T07:13:39;99505.63;;;11.46;100.00
29839;BME280;18669;53.356;-1.464;2022-10-22T07:16:05;99511.06;;;11.41;100.00
29839;BME280;18669;53.356;-1.464;2022-10-22T07:18:32;99510.13;;;11.44;100.00
29839;BME280;18669;53.356;-1.464;2022-10-22T07:20:58;99521.56;;;11.43;100.00
29839;BME280;18669;53.356;-1.464;2022-10-22T07:23:24;99519.84;;;11.42;100.00
29839;BME280;18669;53.356;-1.464;2022-10-22T07:25:51;99528.66;;;11.41;100.00
29839;BME280;18669;53.356;-1.464;2022-10-22T07:28:17;99537.41;;;11.41;100.00
29839;BME280;18669;53.356;-1.464;2022-10-22T07:30:43;99540.97;;;11.40;100.00
29839;BME280;18669;53.356;-1.464;2022-10-22T07:33:09;99542.69;;;11.41;100.00
29839;BME280;18669;53.356;-1.464;2022-10-22T07:35:36;99547.78;;;11.46;100.00
29839;BME280;18669;53.356;-1.464;2022-10-22T07:38:02;99560.06;;;11.45;100.00
29839;BME280;18669;53.356;-1.464;2022-10-22T07:40:28;99553.88;;;11.46;100.00
29839;BME280;18669;53.356;-1.464;2022-10-22T07:42:54;99560.06;;;11.45;100.00
29839;BME280;18669;53.356;-1.464;2022-10-22T07:45:20;99565.28;;;11.47;100.00
29839;BME280;18669;53.356;-1.464;2022-10-22T07:47:46;99564.16;;;11.53;100.00
29839;BME280;18669;53.356;-1.464;2022-10-22T07:50:12;99563.03;;;11.58;100.00
29839;BME280;18669;53.356;-1.464;2022-10-22T07:52:38;99566.56;;;11.59;100.00
29839;BME280;18669;53.356;-1.464;2022-10-22T07:55:04;99569.19;;;11.59;100.00
29839;BME280;18669;53.356;-1.464;2022-10-22T07:57:30;99580.69;;;11.56;100.00
29839;BME280;18669;53.356;-1.464;2022-10-22T07:59:56;99572.13;;;11.51;100.00
29839;BME280;18669;53.356;-1.464;2022-10-22T08:02:23;99578.25;;;11.52;100.00
29839;BME280;18669;53.356;-1.464;2022-10-22T08:04:49;99592.09;;;11.57;100.00
29839;BME280;18669;53.356;-1.464;2022-10-22T08:07:16;99599.00;;;11.59;100.00
29839;BME280;18669;53.356;-1.464;2022-10-22T08:09:42;99604.09;;;11.64;100.00
29839;BME280;18669;53.356;-1.464;2022-10-22T08:12:08;99601.38;;;11.66;100.00
29839;BME280;18669;53.356;-1.464;2022-10-22T08:14:34;99604.69;;;11.71;100.00
29839;BME280;18669;53.356;-1.464;2022-10-22T08:17:00;99607.25;;;11.72;100.00
29839;BME280;18669;53.356;-1.464;2022-10-22T08:19:26;99607.19;;;11.74;100.00
29839;BME280;18669;53.356;-1.464;2022-10-22T08:21:53;99607.06;;;11.77;100.00
29839;BME280;18669;53.356;-1.464;2022-10-22T08:24:19;99608.66;;;11.81;100.00
29839;BME280;18669;53.356;-1.464;2022-10-22T08:26:45;99600.56;;;11.86;100.00
29839;BME280;18669;53.356;-1.464;2022-10-22T08:29:10;99617.63;;;11.98;100.00
29839;BME280;18669;53.356;-1.464;2022-10-22T08:31:36;99621.47;;;12.11;100.00
29839;BME280;18669;53.356;-1.464;2022-10-22T08:34:02;99621.94;;;12.21;100.00
29839;BME280;18669;53.356;-1.464;2022-10-22T08:36:30;99624.84;;;12.35;100.00
29839;BME280;18669;53.356;-1.464;2022-10-22T08:38:57;99625.81;;;12.33;100.00
29839;BME280;18669;53.356;-1.464;2022-10-22T08:41:23;99629.53;;;12.48;100.00
29839;BME280;18669;53.356;-1.464;2022-10-22T08:48:51;99626.66;;;13.11;100.00
29839;BME280;18669;53.356;-1.464;2022-10-22T08:51:19;99623.47;;;13.61;100.00
29839;BME280;18669;53.356;-1.464;2022-10-22T08:53:50;99624.00;;;14.02;100.00
29839;BME280;18669;53.356;-1.464;2022-10-22T08:56:21;99613.19;;;14.58;100.00
29839;BME280;18669;53.356;-1.464;2022-10-22T08:58:48;99617.56;;;14.59;100.00
29839;BME280;18669;53.356;-1.464;2022-10-22T09:01:21;99621.03;;;14.94;100.00
29839;BME280;18669;53.356;-1.464;2022-10-22T09:06:15;99638.25;;;14.85;100.00
29839;BME280;18669;53.356;-1.464;2022-10-22T09:08:44;99652.56;;;14.98;100.00
29839;BME280;18669;53.356;-1.464;2022-10-22T09:13:40;99651.66;;;14.48;100.00
29839;BME280;18669;53.356;-1.464;2022-10-22T09:16:17;99651.53;;;14.16;100.00
29839;BME280;18669;53.356;-1.464;2022-10-22T09:21:16;99657.00;;;13.41;100.00
29839;BME280;18669;53.356;-1.464;2022-10-22T09:26:25;99661.38;;;13.42;100.00
29839;BME280;18669;53.356;-1.464;2022-10-22T09:28:52;99669.13;;;13.45;100.00
29839;BME280;18669;53.356;-1.464;2022-10-22T09:31:18;99662.84;;;13.48;100.00
29839;BME280;18669;53.356;-1.464;2022-10-22T09:33:45;99656.47;;;13.52;100.00
29839;BME280;18669;53.356;-1.464;2022-10-22T09:36:17;99664.88;;;13.60;100.00
29839;BME280;18669;53.356;-1.464;2022-10-22T09:38:44;99655.41;;;13.73;100.00
29839;BME280;18669;53.356;-1.464;2022-10-22T09:41:11;99662.44;;;13.92;100.00
29839;BME280;18669;53.356;-1.464;2022-10-22T09:43:40;99656.13;;;13.95;100.00
29839;BME280;18669;53.356;-1.464;2022-10-22T09:46:06;99650.00;;;13.94;100.00
29839;BME280;18669;53.356;-1.464;2022-10-22T09:48:34;99660.41;;;13.97;100.00
29839;BME280;18669;53.356;-1.464;2022-10-22T09:51:05;99652.41;;;13.99;100.00
29839;BME280;18669;53.356;-1.464;2022-10-22T09:53:41;99662.53;;;14.08;100.00
29839;BME280;18669;53.356;-1.464;2022-10-22T09:56:24;99669.06;;;14.01;100.00
29839;BME280;18669;53.356;-1.464;2022-10-22T09:58:50;99669.22;;;13.98;100.00
29839;BME280;18669;53.356;-1.464;2022-10-22T10:01:30;99671.53;;;14.04;100.00
29839;BME280;18669;53.356;-1.464;2022-10-22T10:04:03;99683.84;;;14.05;100.00
29839;BME280;18669;53.356;-1.464;2022-10-22T10:06:30;99690.84;;;14.06;100.00
29839;BME280;18669;53.356;-1.464;2022-10-22T10:08:56;99686.94;;;13.96;100.00
29839;BME280;18669;53.356;-1.464;2022-10-22T10:11:31;99679.94;;;13.95;100.00
29839;BME280;18669;53.356;-1.464;2022-10-22T10:14:03;99678.47;;;14.07;100.00
29839;BME280;18669;53.356;-1.464;2022-10-22T10:16:47;99683.28;;;14.16;100.00
29839;BME280;18669;53.356;-1.464;2022-10-22T10:22:18;99695.81;;;14.30;100.00
29839;BME280;18669;53.356;-1.464;2022-10-22T10:27:37;99704.50;;;14.50;100.00
29839;BME280;18669;53.356;-1.464;2022-10-22T10:30:18;99703.09;;;14.60;100.00
29839;BME280;18669;53.356;-1.464;2022-10-22T10:36:41;99708.78;;;14.70;100.00
29839;BME280;18669;53.356;-1.464;2022-10-22T10:39:46;99713.97;;;14.89;100.00
29839;BME280;18669;53.356;-1.464;2022-10-22T10:48:09;99727.28;;;15.37;100.00
29839;BME280;18669;53.356;-1.464;2022-10-22T10:56:43;99730.81;;;15.04;100.00
29839;BME280;18669;53.356;-1.464;2022-10-22T11:00:18;99741.13;;;15.26;100.00
29839;BME280;18669;53.356;-1.464;2022-10-22T11:07:55;99766.69;;;15.59;100.00
29839;BME280;18669;53.356;-1.464;2022-10-22T11:10:33;99778.00;;;15.63;100.00
29839;BME280;18669;53.356;-1.464;2022-10-22T11:13:29;99782.53;;;15.61;100.00
29839;BME280;18669;53.356;-1.464;2022-10-22T11:16:08;99780.31;;;15.53;100.00
29839;BME280;18669;53.356;-1.464;2022-10-22T11:18:59;99792.03;;;15.49;100.00
29839;BME280;18669;53.356;-1.464;2022-10-22T11:21:48;99781.78;;;15.59;100.00
29839;BME280;18669;53.356;-1.464;2022-10-22T11:24:25;99777.25;;;15.61;100.00
29839;BME280;18669;53.356;-1.464;2022-10-22T11:27:21;99780.38;;;16.16;100.00
29839;BME280;18669;53.356;-1.464;2022-10-22T11:30:01;99785.47;;;16.35;100.00
29839;BME280;18669;53.356;-1.464;2022-10-22T11:32:28;99783.28;;;16.58;100.00
29839;BME280;18669;53.356;-1.464;2022-10-22T11:34:58;99787.59;;;16.89;100.00
29839;BME280;18669;53.356;-1.464;2022-10-22T11:37:29;99794.94;;;17.00;100.00
29839;BME280;18669;53.356;-1.464;2022-10-22T11:42:57;99791.72;;;16.34;100.00
29839;BME280;18669;53.356;-1.464;2022-10-22T11:47:57;99799.91;;;16.15;100.00
29839;BME280;18669;53.356;-1.464;2022-10-22T11:50:27;99800.84;;;16.14;100.00
29839;BME280;18669;53.356;-1.464;2022-10-22T12:00:57;99803.31;;;16.17;100.00
29839;BME280;18669;53.356;-1.464;2022-10-22T12:03:42;99801.19;;;16.23;100.00
29839;BME280;18669;53.356;-1.464;2022-10-22T12:16:42;99793.69;;;16.61;100.00
29839;BME280;18669;53.356;-1.464;2022-10-22T12:21:37;99787.66;;;16.59;100.00
29839;BME280;18669;53.356;-1.464;2022-10-22T12:24:05;99804.06;;;16.65;100.00
29839;BME280;18669;53.356;-1.464;2022-10-22T12:26:32;99793.31;;;16.52;100.00
29839;BME280;18669;53.356;-1.464;2022-10-22T12:29:08;99786.13;;;16.54;100.00
29839;BME280;18669;53.356;-1.464;2022-10-22T12:31:37;99804.75;;;16.38;100.00
29839;BME280;18669;53.356;-1.464;2022-10-22T12:34:04;99794.69;;;16.60;100.00
29839;BME280;18669;53.356;-1.464;2022-10-22T12:36:35;99791.81;;;17.22;100.00
29839;BME280;18669;53.356;-1.464;2022-10-22T12:39:07;99778.72;;;17.19;100.00
29839;BME280;18669;53.356;-1.464;2022-10-22T12:41:36;99786.50;;;17.22;100.00
29839;BME280;18669;53.356;-1.464;2022-10-22T12:44:03;99789.97;;;16.79;100.00
29839;BME280;18669;53.356;-1.464;2022-10-22T12:46:33;99791.03;;;16.61;100.00
29839;BME280;18669;53.356;-1.464;2022-10-22T12:49:05;99783.94;;;16.61;100.00
29839;BME280;18669;53.356;-1.464;2022-10-22T12:51:33;99780.06;;;16.52;100.00
29839;BME280;18669;53.356;-1.464;2022-10-22T12:54:08;99784.66;;;16.49;100.00
29839;BME280;18669;53.356;-1.464;2022-10-22T12:56:35;99785.78;;;16.45;100.00
29839;BME280;18669;53.356;-1.464;2022-10-22T12:59:07;99783.25;;;16.43;100.00
29839;BME280;18669;53.356;-1.464;2022-10-22T13:01:41;99781.72;;;16.39;100.00
29839;BME280;18669;53.356;-1.464;2022-10-22T13:06:43;99772.34;;;16.48;100.00
29839;BME280;18669;53.356;-1.464;2022-10-22T13:09:21;99777.75;;;16.46;100.00
29839;BME280;18669;53.356;-1.464;2022-10-22T13:11:55;99786.47;;;16.48;100.00
29839;BME280;18669;53.356;-1.464;2022-10-22T13:14:28;99785.41;;;16.36;100.00
29839;BME280;18669;53.356;-1.464;2022-10-22T13:17:18;99788.53;;;16.43;100.00
29839;BME280;18669;53.356;-1.464;2022-10-22T13:24:52;99792.59;;;16.34;100.00
29839;BME280;18669;53.356;-1.464;2022-10-22T13:27:19;99782.16;;;16.31;100.00
29839;BME280;18669;53.356;-1.464;2022-10-22T13:29:45;99785.84;;;16.29;100.00
29839;BME280;18669;53.356;-1.464;2022-10-22T13:32:40;99796.22;;;16.48;100.00
29839;BME280;18669;53.356;-1.464;2022-10-22T13:35:11;99792.25;;;16.40;100.00
29839;BME280;18669;53.356;-1.464;2022-10-22T13:37:40;99794.22;;;16.37;100.00
29839;BME280;18669;53.356;-1.464;2022-10-22T13:40:13;99785.00;;;16.59;100.00
29839;BME280;18669;53.356;-1.464;2022-10-22T13:42:39;99799.78;;;16.63;100.00
29839;BME280;18669;53.356;-1.464;2022-10-22T13:45:05;99802.78;;;16.87;100.00
29839;BME280;18669;53.356;-1.464;2022-10-22T13:47:32;99809.19;;;16.99;100.00
29839;BME280;18669;53.356;-1.464;2022-10-22T13:50:01;99809.84;;;17.17;100.00
29839;BME280;18669;53.356;-1.464;2022-10-22T13:52:38;99795.41;;;17.50;100.00
29839;BME280;18669;53.356;-1.464;2022-10-22T13:55:15;99797.44;;;17.88;100.00
29839;BME280;18669;53.356;-1.464;2022-10-22T13:57:42;99808.38;;;17.84;100.00
29839;BME280;18669;53.356;-1.464;2022-10-22T14:00:14;99800.75;;;18.47;100.00
29839;BME280;18669;53.356;-1.464;2022-10-22T14:02:41;99814.78;;;18.76;100.00
29839;BME280;18669;53.356;-1.464;2022-10-22T14:05:08;99820.53;;;18.70;100.00
29839;BME280;18669;53.356;-1.464;2022-10-22T14:07:35;99827.97;;;18.25;100.00
29839;BME280;18669;53.356;-1.464;2022-10-22T14:10:05;99826.66;;;17.61;100.00
29839;BME280;18669;53.356;-1.464;2022-10-22T14:12:31;99821.25;;;17.05;100.00
29839;BME280;18669;53.356;-1.464;2022-10-22T14:14:57;99819.25;;;16.63;100.00
29839;BME280;18669;53.356;-1.464;2022-10-22T14:17:24;99814.78;;;16.33;100.00
29839;BME280;18669;53.356;-1.464;2022-10-22T14:19:50;99817.47;;;16.17;100.00
29839;BME280;18669;53.356;-1.464;2022-10-22T14:22:17;99821.56;;;16.07;100.00
29839;BME280;18669;53.356;-1.464;2022-10-22T14:24:44;99828.34;;;15.96;100.00
29839;BME280;18669;53.356;-1.464;2022-10-22T14:27:13;99816.88;;;15.96;100.00
29839;BME280;18669;53.356;-1.464;2022-10-22T14:29:39;99822.19;;;15.96;100.00
29839;BME280;18669;53.356;-1.464;2022-10-22T14:32:12;99824.31;;;16.05;100.00